METAR Data
IDs: Format: Raw Decoded Include TAF

Data at: 1723 UTC 19 Sep 2018

KCHA 191653Z 36003KT 10SM FEW040 FEW070 31/19 A3005 RMK AO2 SLP166 T03110194
KCHA 191553Z 00000KT 10SM FEW035 FEW120 29/20 A3007 RMK AO2 SLP173 T02940200
KCHA 191453Z 00000KT 10SM FEW130 27/19 A3007 RMK AO2 SLP173 T02670194 51010
KCHA 191353Z 00000KT 10SM FEW020 SCT150 SCT200 24/19 A3006 RMK AO2 SLP172 T02390194
KCHA 191253Z 00000KT 10SM SCT150 SCT250 22/19 A3005 RMK AO2 SLP168 T02170194
KCHA 191153Z 00000KT 10SM FEW006 SCT150 SCT250 20/18 A3004 RMK AO2 SLP164 T02000183 10222 20194 53017
KCHA 191125Z 00000KT 10SM FEW006 SCT120 20/18 A3002 RMK AO2 T02000183
KCHA 191053Z 00000KT 10SM FEW110 20/18 A3001 RMK AO2 SLP156 T02000183
KCHA 190953Z 33003KT 9SM BCFG FEW006 20/18 A3000 RMK AO2 SLP149 T02000183
KCHA 190853Z AUTO 00000KT 10SM CLR 21/19 A2999 RMK AO2 SLP145 T02060189 55001
KCHA 190753Z AUTO 00000KT 10SM CLR 21/19 A2998 RMK AO2 SLP144 T02110194
KCHA 190653Z AUTO 00000KT 10SM CLR 22/19 A2998 RMK AO2 SLP143 T02170194
KCHA 190553Z AUTO 00000KT 10SM CLR 22/20 A2999 RMK AO2 SLP146 T02220200 10267 20211 53000
KCHA 190453Z AUTO 00000KT 10SM CLR 23/21 A2999 RMK AO2 SLP144 T02280206 403170206
KCHA 190353Z 00000KT 10SM CLR 23/21 A2999 RMK AO2 SLP146 LAST T02280206
KCHA 190253Z 33003KT 10SM SCT120 23/21 A2999 RMK AO2 SLP146 T02330206 53011
KCHA 190153Z 36003KT 10SM FEW120 24/21 A2997 RMK AO2 SLP142 T02440206
KCHA 190053Z 33003KT 10SM BKN120 26/21 A2995 RMK AO2 SLP135 T02560211
KCHA 182353Z 34003KT 10SM BKN100 27/21 A2995 RMK AO2 SLP135 T02670206 10311 20267 51000
KCHA 182253Z 00000KT 10SM FEW037 BKN100 27/21 A2995 RMK AO2 SLP135 T02720206
KCHA 182153Z 01005KT 10SM FEW040 SCT080 BKN130 30/18 A2996 RMK AO2 SLP135 T03000183
KCHA 182053Z 34008KT 10SM FEW040 BKN110 BKN250 31/19 A2995 RMK AO2 SLP134 T03060194 56015
KCHA 181953Z 28006KT 10SM SCT036 BKN110 BKN210 BKN250 28/21 A2996 RMK AO2 SLP136 TCU DSNT ALQDS T02830206
KCHA 181853Z 32005KT 10SM SCT037 BKN110 BKN250 29/19 A2998 RMK AO2 SLP142 TCU DSNT ALQDS SHRA SW-W T02940194
KCHA 181753Z 31007KT 10SM SCT035TCU BKN075 BKN120 27/18 A3000 RMK AO2 WSHFT 1715 SLP149 TCU SW-W MDT CU ALQDS SHRA SW-W T02720178 10317 20211 56012
KCHA 181735Z 31012KT 10SM SCT035CB BKN075 BKN095 BKN150 27/18 A3000 RMK AO2 WSHFT 1715 CB W-NW MOV S TCU NE-E SHRA W-NW T02720183
KCHA 181653Z 35005KT 10SM SCT038 SCT070 SCT150 31/20 A3000 RMK AO2 SLP150 T03110200
KCHA 181553Z 31003KT 10SM SCT035 SCT070 SCT150 28/20 A3003 RMK AO2 SLP159 TCU DSNT NW-N T02830200
KCHA 181453Z 29003KT 10SM FEW024 FEW100 FEW150 27/20 A3003 RMK AO2 SLP161 T02720200 51003
KCHA 181353Z 00000KT 10SM FEW045 FEW100 FEW150 25/21 A3003 RMK AO2 SLP160 T02500206
KCHA 181253Z 00000KT 10SM FEW150 23/20 A3003 RMK AO2 SLP161 T02280200
KCHA 181153Z 00000KT 10SM FEW006 FEW150 21/19 A3002 RMK AO2 SLP159 T02110189 10228 20206 53009
KCHA 181053Z 00000KT 10SM SCT150 21/19 A3002 RMK AO2 SLP157 T02060189
KCHA 180953Z COR 00000KT 10SM FEW005 SCT150 21/19 A3000 RMK AO2 SLP152 T02110194
KCHA 180853Z 00000KT 10SM CLR 22/20 A3000 RMK AO2 SLP149 T02170200 58001
KCHA 180753Z 00000KT 10SM CLR 22/20 A3000 RMK AO2 SLP150 T02170200
KCHA 180653Z 00000KT 10SM CLR 23/21 A3000 RMK AO2 SLP151 T02280206
KCHA 180553Z 00000KT 10SM CLR 23/21 A3000 RMK AO2 SLP150 T02280206 10261 20228 58000